createdAt,value
2022-10-17T00:00:29.935Z,101359.81
2022-10-17T00:02:56.578Z,101359.81
2022-10-17T00:05:22.886Z,101345.13
2022-10-17T00:08:09.476Z,101349.94
2022-10-17T00:10:36.050Z,101350.78
2022-10-17T00:13:09.846Z,101351.97
2022-10-17T00:15:36.168Z,101356.81
2022-10-17T00:18:03.114Z,101351.31
2022-10-17T00:20:30.517Z,101356.53
2022-10-17T00:22:57.212Z,101353.03
2022-10-17T00:25:32.209Z,101351.47
2022-10-17T00:27:58.513Z,101347.47
2022-10-17T00:30:24.831Z,101353.44
2022-10-17T00:32:51.127Z,101351.44
2022-10-17T00:35:17.443Z,101351.03
2022-10-17T00:37:46.835Z,101358.59
2022-10-17T00:40:13.400Z,101345.50
2022-10-17T00:42:39.732Z,101341.53
2022-10-17T00:45:23.870Z,101342.75
2022-10-17T00:47:55.703Z,101337.59
2022-10-17T00:50:22.193Z,101334.81
2022-10-17T00:52:48.811Z,101338.41
2022-10-17T00:55:21.174Z,101336.03
2022-10-17T00:57:47.744Z,101336.91
2022-10-17T01:00:17.877Z,101340.13
2022-10-17T01:02:44.328Z,101337.00
2022-10-17T01:05:10.917Z,101318.31
2022-10-17T01:07:38.096Z,101338.56
2022-10-17T01:10:05.403Z,101338.56
2022-10-17T01:12:34.689Z,101323.88
2022-10-17T01:15:00.990Z,101329.06
2022-10-17T01:17:47.535Z,101327.06
2022-10-17T01:20:13.814Z,101327.06
2022-10-17T01:23:04.966Z,101332.69
2022-10-17T01:25:31.241Z,101337.88
2022-10-17T01:28:00.239Z,101332.34
2022-10-17T01:30:32.417Z,101331.56
2022-10-17T01:32:58.768Z,101327.16
2022-10-17T01:35:33.956Z,101324.03
2022-10-17T01:38:09.311Z,101321.66
2022-10-17T01:40:44.750Z,101319.28
2022-10-17T01:43:22.946Z,101322.91
2022-10-17T01:46:02.655Z,101322.13
2022-10-17T01:48:35.519Z,101327.69
2022-10-17T01:51:06.090Z,101315.75
2022-10-17T01:53:34.379Z,101322.22
2022-10-17T01:56:02.569Z,101307.91
2022-10-17T01:58:32.116Z,101312.75
2022-10-17T02:01:01.472Z,101312.41
2022-10-17T02:03:34.500Z,101313.97
2022-10-17T02:06:01.406Z,101308.00
2022-10-17T02:08:29.199Z,101309.56
2022-10-17T02:11:01.642Z,101306.38
2022-10-17T02:13:46.400Z,101304.00
2022-10-17T02:16:31.615Z,101300.47
2022-10-17T02:19:00.645Z,101294.09
2022-10-17T02:21:32.898Z,101297.69
2022-10-17T02:24:19.463Z,101300.06
2022-10-17T02:27:11.774Z,101299.72
2022-10-17T02:29:43.306Z,101279.47
2022-10-17T02:32:13.104Z,101298.13
2022-10-17T02:35:00.615Z,101292.19
2022-10-17T02:37:29.325Z,101285.84
2022-10-17T02:39:59.839Z,101289.84
2022-10-17T02:42:27.596Z,101289.84
2022-10-17T02:44:59.104Z,101277.56
2022-10-17T02:47:27.384Z,101285.91
2022-10-17T02:49:55.847Z,101283.91
2022-10-17T02:52:33.607Z,101285.16
2022-10-17T02:55:16.090Z,101286.34
2022-10-17T02:57:46.164Z,101283.94
2022-10-17T03:00:14.289Z,101284.31
2022-10-17T03:02:42.242Z,101287.09
2022-10-17T03:05:09.053Z,101284.31
2022-10-17T03:07:35.471Z,101283.13
2022-10-17T03:10:01.865Z,101285.53
2022-10-17T03:12:28.435Z,101293.06
2022-10-17T03:14:55.120Z,101293.88
2022-10-17T03:17:21.590Z,101294.28
2022-10-17T03:19:48.044Z,101294.69
2022-10-17T03:22:14.518Z,101295.50
2022-10-17T03:24:40.944Z,101289.13
2022-10-17T03:27:07.317Z,101287.13
2022-10-17T03:29:33.935Z,101291.13
2022-10-17T03:32:00.390Z,101292.72
2022-10-17T03:34:27.283Z,101289.94
2022-10-17T03:36:53.710Z,101297.56
2022-10-17T03:39:20.145Z,101295.97
2022-10-17T03:41:46.879Z,101311.50
2022-10-17T03:44:13.442Z,101312.72
2022-10-17T03:46:40.018Z,101309.13
2022-10-17T03:49:06.466Z,101305.94
2022-10-17T03:51:33.235Z,101309.13
2022-10-17T03:53:59.681Z,101316.31
2022-10-17T03:56:50.230Z,101315.84
2022-10-17T03:59:18.159Z,101317.06
2022-10-17T04:02:07.562Z,101306.75
2022-10-17T04:04:45.770Z,101306.31
2022-10-17T04:07:12.110Z,101312.66
2022-10-17T04:09:38.402Z,101312.66
2022-10-17T04:12:04.769Z,101309.13
2022-10-17T04:14:32.023Z,101306.75
2022-10-17T04:16:58.576Z,101314.69
2022-10-17T04:19:25.831Z,101328.25
2022-10-17T04:21:52.117Z,101322.31
2022-10-17T04:24:18.499Z,101330.22
2022-10-17T04:26:44.814Z,101331.44
2022-10-17T04:29:11.204Z,101333.00
2022-10-17T04:31:37.742Z,101335.41
2022-10-17T04:34:14.443Z,101321.13
2022-10-17T04:36:41.096Z,101321.13
2022-10-17T04:39:10.547Z,101330.28
2022-10-17T04:41:37.022Z,101334.63
2022-10-17T04:44:03.742Z,101335.81
2022-10-17T04:46:30.067Z,101336.25
2022-10-17T04:48:56.664Z,101333.06
2022-10-17T04:51:25.845Z,101329.88
2022-10-17T04:53:52.978Z,101326.28
2022-10-17T04:56:28.484Z,101331.06
2022-10-17T04:58:54.977Z,101340.19
2022-10-17T05:01:22.296Z,101333.81
2022-10-17T05:03:48.993Z,101333.84
2022-10-17T05:06:16.692Z,101341.38
2022-10-17T05:08:43.501Z,101347.34
2022-10-17T05:11:19.224Z,101338.59
2022-10-17T05:13:45.516Z,101339.41
2022-10-17T05:16:11.868Z,101340.97
2022-10-17T05:18:38.244Z,101344.56
2022-10-17T05:21:04.633Z,101350.13
2022-10-17T05:23:30.995Z,101348.94
2022-10-17T05:25:57.392Z,101352.16
2022-10-17T05:28:23.866Z,101350.13
2022-10-17T05:30:50.237Z,101353.31
2022-10-17T05:33:16.604Z,101358.88
2022-10-17T05:35:43.031Z,101356.13
2022-10-17T05:38:09.343Z,101355.69
2022-10-17T05:40:42.981Z,101351.69
2022-10-17T05:43:09.271Z,101362.81
2022-10-17T05:45:35.939Z,101359.22
2022-10-17T05:48:02.235Z,101368.41
2022-10-17T05:50:28.612Z,101378.75
2022-10-17T05:52:58.034Z,101382.34
2022-10-17T05:55:24.578Z,101385.09
2022-10-17T05:57:52.625Z,101392.63
2022-10-17T06:00:18.985Z,101383.88
2022-10-17T06:02:46.001Z,101391.88
2022-10-17T06:05:18.369Z,101381.91
2022-10-17T06:07:44.880Z,101389.88
2022-10-17T06:10:23.484Z,101395.47
2022-10-17T06:12:49.827Z,101393.47
2022-10-17T06:15:16.179Z,101398.25
2022-10-17T06:17:42.510Z,101393.44
2022-10-17T06:20:09.083Z,101399.81
2022-10-17T06:22:35.446Z,101401.81
2022-10-17T06:25:01.991Z,101403.00
2022-10-17T06:27:28.270Z,101404.94
2022-10-17T06:29:54.617Z,101413.28
2022-10-17T06:32:20.936Z,101424.44
2022-10-17T06:34:47.313Z,101418.50
2022-10-17T06:37:13.617Z,101424.47
2022-10-17T06:39:39.977Z,101423.66
2022-10-17T06:42:06.263Z,101418.47
2022-10-17T06:44:32.628Z,101423.22
2022-10-17T06:46:59.162Z,101418.00
2022-10-17T06:49:25.702Z,101428.34
2022-10-17T06:51:52.170Z,101424.34
2022-10-17T06:54:18.490Z,101419.91
2022-10-17T06:56:44.801Z,101423.44
2022-10-17T06:59:11.213Z,101417.75
2022-10-17T07:01:37.683Z,101422.41
2022-10-17T07:04:04.415Z,101424.66
2022-10-17T07:06:31.128Z,101431.72
2022-10-17T07:08:57.455Z,101440.78
2022-10-17T07:11:23.777Z,101445.41
2022-10-17T07:13:50.170Z,101446.78
2022-10-17T07:16:16.599Z,101451.06
2022-10-17T07:18:43.133Z,101451.41
2022-10-17T07:21:09.535Z,101466.44
2022-10-17T07:23:36.963Z,101461.97
2022-10-17T07:26:06.856Z,101458.34
2022-10-17T07:28:37.459Z,101454.25
2022-10-17T07:31:05.412Z,101454.59
2022-10-17T07:33:32.072Z,101460.88
2022-10-17T07:35:59.185Z,101458.41
2022-10-17T07:38:25.668Z,101453.44
2022-10-17T07:40:59.890Z,101460.81
2022-10-17T07:43:26.664Z,101458.53
2022-10-17T07:45:53.452Z,101451.75
2022-10-17T07:48:20.278Z,101449.69
2022-10-17T07:50:46.892Z,101446.91
2022-10-17T07:53:13.464Z,101454.75
2022-10-17T07:55:41.030Z,101456.66
2022-10-17T07:58:08.339Z,101465.72
2022-10-17T08:00:35.417Z,101463.03
2022-10-17T08:03:01.729Z,101466.84
2022-10-17T08:05:28.832Z,101467.28
2022-10-17T08:07:55.241Z,101465.47
2022-10-17T08:10:21.545Z,101461.63
2022-10-17T08:12:47.920Z,101461.47
2022-10-17T08:15:14.299Z,101454.25
2022-10-17T08:17:40.648Z,101469.56
2022-10-17T08:20:07.350Z,101460.53
2022-10-17T08:22:33.658Z,101473.38
2022-10-17T08:24:59.965Z,101475.13
2022-10-17T08:27:27.976Z,101475.63
2022-10-17T08:29:54.969Z,101486.47
2022-10-17T08:32:26.346Z,101499.97
2022-10-17T08:34:53.565Z,101495.28
2022-10-17T08:37:20.549Z,101498.63
2022-10-17T08:39:46.933Z,101498.31
2022-10-17T08:42:25.324Z,101498.47
2022-10-17T08:44:58.593Z,101513.28
2022-10-17T08:47:36.068Z,101513.09
2022-10-17T08:50:04.722Z,101511.78
2022-10-17T08:52:40.529Z,101508.31
2022-10-17T08:55:30.460Z,101510.13
2022-10-17T08:57:56.922Z,101517.53
2022-10-17T09:00:23.593Z,101507.56
2022-10-17T09:03:09.105Z,101513.09
2022-10-17T09:05:44.484Z,101508.16
2022-10-17T09:08:29.513Z,101515.91
2022-10-17T09:11:14.738Z,101510.38
2022-10-17T09:14:07.723Z,101517.69
2022-10-17T09:16:40.319Z,101522.09
2022-10-17T09:19:17.367Z,101537.50
2022-10-17T09:22:04.101Z,101536.38
2022-10-17T09:24:36.628Z,101546.94
2022-10-17T09:27:03.392Z,101531.72
2022-10-17T09:29:36.113Z,101543.31
2022-10-17T09:32:35.971Z,101540.47
2022-10-17T09:35:02.806Z,101560.22
2022-10-17T09:37:31.035Z,101546.00
2022-10-17T09:39:57.669Z,101554.63
2022-10-17T09:42:25.929Z,101560.28
2022-10-17T09:44:55.974Z,101565.47
2022-10-17T09:47:22.262Z,101567.72
2022-10-17T09:49:49.042Z,101567.72
2022-10-17T09:52:17.685Z,101574.84
2022-10-17T09:54:43.991Z,101591.09
2022-10-17T09:57:11.241Z,101590.91
2022-10-17T09:59:39.552Z,101588.88
2022-10-17T10:02:09.179Z,101585.91
2022-10-17T10:04:41.560Z,101595.81
2022-10-17T10:07:26.895Z,101600.22
2022-10-17T10:09:56.135Z,101595.38
2022-10-17T10:12:22.438Z,101610.22
2022-10-17T10:14:53.288Z,101617.31
2022-10-17T10:17:29.866Z,101616.25
2022-10-17T10:19:56.192Z,101609.41
2022-10-17T10:22:25.617Z,101625.22
2022-10-17T10:25:08.699Z,101633.47
2022-10-17T10:27:35.513Z,101632.88
2022-10-17T10:30:02.371Z,101644.72
2022-10-17T10:32:33.583Z,101645.63
2022-10-17T10:35:19.362Z,101644.16
2022-10-17T10:37:47.799Z,101637.63
2022-10-17T10:40:17.921Z,101647.22
2022-10-17T10:42:47.364Z,101631.44
2022-10-17T10:48:16.315Z,101649.69
2022-10-17T10:50:47.390Z,101639.44
2022-10-17T10:53:25.957Z,101638.09
2022-10-17T10:55:55.362Z,101644.28
2022-10-17T10:58:27.450Z,101655.53
2022-10-17T11:00:55.200Z,101666.91
2022-10-17T11:03:26.264Z,101673.06
2022-10-17T11:05:58.495Z,101671.59
2022-10-17T11:08:38.475Z,101674.81
2022-10-17T11:11:13.702Z,101683.78
2022-10-17T11:13:43.414Z,101690.78
2022-10-17T11:16:12.704Z,101701.59
2022-10-17T11:18:38.994Z,101706.69
2022-10-17T11:21:05.354Z,101695.41
2022-10-17T11:24:09.108Z,101701.66
2022-10-17T11:26:40.285Z,101711.44
2022-10-17T11:29:08.884Z,101693.06
2022-10-17T11:31:37.685Z,101704.47
2022-10-17T11:34:22.522Z,101694.19
2022-10-17T11:36:51.065Z,101689.00
2022-10-17T11:39:23.682Z,101680.78
2022-10-17T11:41:55.419Z,101682.03
2022-10-17T11:44:25.095Z,101668.59
2022-10-17T11:46:54.783Z,101658.34
2022-10-17T11:49:24.156Z,101659.13
2022-10-17T11:52:02.025Z,101667.25
2022-10-17T11:54:41.679Z,101671.78
2022-10-17T11:57:46.639Z,101673.69
2022-10-17T12:00:35.825Z,101679.66
2022-10-17T12:03:04.353Z,101672.31
2022-10-17T12:05:45.426Z,101680.09
2022-10-17T12:08:29.140Z,101692.06
2022-10-17T12:11:03.096Z,101687.66
2022-10-17T12:13:29.543Z,101698.13
2022-10-17T12:15:56.604Z,101698.69
2022-10-17T12:18:27.363Z,101696.44
2022-10-17T12:21:00.445Z,101703.44
2022-10-17T12:23:28.126Z,101696.91
2022-10-17T12:26:04.907Z,101697.00
2022-10-17T12:28:37.562Z,101713.38
2022-10-17T12:31:07.037Z,101700.41
2022-10-17T12:33:50.087Z,101708.97
2022-10-17T12:36:22.567Z,101703.34
2022-10-17T12:38:50.373Z,101706.94
2022-10-17T12:41:17.335Z,101704.31
2022-10-17T12:46:44.145Z,101699.91
2022-10-17T12:49:33.955Z,101709.41
2022-10-17T12:52:15.439Z,101713.78
2022-10-17T12:55:17.043Z,101725.84
2022-10-17T12:58:01.593Z,101714.78
2022-10-17T13:00:33.942Z,101714.44
2022-10-17T13:03:06.252Z,101714.22
2022-10-17T13:05:37.252Z,101724.34
2022-10-17T13:08:04.764Z,101714.94
2022-10-17T13:10:33.517Z,101715.75
2022-10-17T13:13:20.072Z,101731.97
2022-10-17T13:15:51.134Z,101731.59
2022-10-17T13:18:22.031Z,101729.44
2022-10-17T13:20:56.396Z,101733.81
2022-10-17T13:23:26.711Z,101749.94
2022-10-17T13:26:22.541Z,101746.31
2022-10-17T13:29:05.953Z,101758.59
2022-10-17T13:31:37.167Z,101755.41
2022-10-17T13:34:07.717Z,101757.97
2022-10-17T13:36:34.417Z,101754.38
2022-10-17T13:39:12.337Z,101763.53
2022-10-17T13:41:41.537Z,101765.91
2022-10-17T13:44:13.124Z,101763.97
2022-10-17T13:46:40.081Z,101765.00
2022-10-17T13:49:32.920Z,101761.50
2022-10-17T13:52:00.414Z,101773.09
2022-10-17T13:54:56.684Z,101765.22
2022-10-17T13:57:22.993Z,101769.22
2022-10-17T13:59:51.572Z,101765.28
2022-10-17T14:02:22.527Z,101772.41
2022-10-17T14:05:16.215Z,101782.28
2022-10-17T14:08:10.152Z,101782.16
2022-10-17T14:10:32.038Z,101781.09
2022-10-17T14:13:00.067Z,101778.28
2022-10-17T14:15:28.351Z,101785.91
2022-10-17T14:18:08.553Z,101792.00
2022-10-17T14:23:29.792Z,101788.72
2022-10-17T14:26:05.706Z,101798.56
2022-10-17T14:28:32.241Z,101786.59
2022-10-17T14:31:10.782Z,101791.28
2022-10-17T14:33:39.956Z,101788.25
2022-10-17T14:36:09.191Z,101793.88
2022-10-17T14:38:36.069Z,101795.75
2022-10-17T14:41:41.232Z,101797.47
2022-10-17T14:44:03.781Z,101806.03
2022-10-17T14:46:30.893Z,101809.88
2022-10-17T14:49:03.313Z,101809.28
2022-10-17T14:51:39.962Z,101812.91
2022-10-17T14:54:19.954Z,101813.59
2022-10-17T14:56:50.829Z,101819.22
2022-10-17T14:59:51.696Z,101829.44
2022-10-17T15:02:09.339Z,101840.25
2022-10-17T15:04:35.832Z,101838.22
2022-10-17T15:07:02.331Z,101852.19
2022-10-17T15:09:29.219Z,101851.25
2022-10-17T15:11:56.352Z,101859.94
2022-10-17T15:14:22.668Z,101865.66
2022-10-17T15:16:49.023Z,101875.78
2022-10-17T15:19:15.325Z,101877.63
2022-10-17T15:21:46.195Z,101873.25
2022-10-17T15:24:14.875Z,101865.50
2022-10-17T15:26:41.199Z,101876.59
2022-10-17T15:29:07.636Z,101884.38
2022-10-17T15:31:34.048Z,101876.47
2022-10-17T15:34:00.349Z,101875.34
2022-10-17T15:36:28.873Z,101878.84
2022-10-17T15:38:56.794Z,101879.03
2022-10-17T15:41:24.215Z,101871.72
2022-10-17T15:43:50.602Z,101880.94
2022-10-17T15:46:18.924Z,101862.44
2022-10-17T15:48:45.330Z,101858.13
2022-10-17T15:51:11.694Z,101864.88
2022-10-17T15:53:38.203Z,101873.53
2022-10-17T15:56:05.189Z,101880.78
2022-10-17T15:58:35.486Z,101882.16
2022-10-17T16:01:02.765Z,101894.91
2022-10-17T16:03:30.282Z,101901.91
2022-10-17T16:06:01.250Z,101900.50
2022-10-17T16:08:28.293Z,101907.88
2022-10-17T16:10:54.634Z,101909.53
2022-10-17T16:13:22.513Z,101909.53
2022-10-17T16:15:48.848Z,101919.91
2022-10-17T16:18:15.268Z,101932.34
2022-10-17T16:37:25.228Z,101961.16
2022-10-17T16:39:53.509Z,101965.41
2022-10-17T16:42:20.853Z,101961.47
2022-10-17T16:44:48.209Z,101960.75
2022-10-17T16:47:14.992Z,101945.00
2022-10-17T16:49:44.405Z,101960.22
2022-10-17T16:52:12.214Z,101958.69
2022-10-17T16:54:38.621Z,101972.31
2022-10-17T16:57:05.318Z,101973.69
2022-10-17T16:59:31.738Z,101978.72
2022-10-17T17:01:58.102Z,101974.34
2022-10-17T17:04:24.685Z,101986.00
2022-10-17T17:06:51.227Z,101971.28
2022-10-17T17:09:17.714Z,101976.53
2022-10-17T17:11:44.247Z,101978.25
2022-10-17T17:14:11.874Z,101975.88
2022-10-17T17:16:38.331Z,101977.03
2022-10-17T17:19:07.958Z,101979.16
2022-10-17T17:21:38.469Z,101975.50
2022-10-17T17:24:05.433Z,101969.47
2022-10-17T17:26:38.657Z,101975.09
2022-10-17T17:29:05.471Z,101973.06
2022-10-17T17:31:33.725Z,101972.66
2022-10-17T17:34:00.551Z,101976.31
2022-10-17T17:36:32.775Z,101971.69
2022-10-17T17:39:01.557Z,101994.97
2022-10-17T17:41:28.760Z,102002.22
2022-10-17T17:43:55.884Z,102005.44
2022-10-17T17:46:23.902Z,102011.09
2022-10-17T17:48:51.496Z,102008.78
2022-10-17T17:51:21.150Z,102016.78
2022-10-17T17:53:49.476Z,102013.78
2022-10-17T17:56:18.731Z,102019.41
2022-10-17T17:58:47.050Z,102029.06
2022-10-17T18:01:19.908Z,102026.41
2022-10-17T18:03:47.531Z,102032.22
2022-10-17T18:06:14.547Z,102036.25
2022-10-17T18:08:45.192Z,102030.69
2022-10-17T18:11:12.108Z,102029.47
2022-10-17T18:13:38.826Z,102029.53
2022-10-17T18:16:13.125Z,102027.94
2022-10-17T18:18:41.842Z,102023.59
2022-10-17T18:21:09.872Z,102028.41
2022-10-17T18:23:38.770Z,102037.28
2022-10-17T18:26:06.192Z,102037.72
2022-10-17T18:28:37.812Z,102042.09
2022-10-17T18:31:10.402Z,102048.56
2022-10-17T18:33:37.433Z,102053.28
2022-10-17T18:36:09.582Z,102048.91
2022-10-17T18:38:36.948Z,102062.97
2022-10-17T18:41:09.134Z,102049.00
2022-10-17T18:43:37.379Z,102054.13
2022-10-17T18:46:07.695Z,102046.56
2022-10-17T18:48:40.155Z,102044.56
2022-10-17T18:51:07.659Z,102047.06
2022-10-17T18:53:34.577Z,102057.03
2022-10-17T18:56:03.251Z,102062.34
2022-10-17T18:58:29.930Z,102065.56
2022-10-17T19:01:03.396Z,102076.00
2022-10-17T19:03:30.679Z,102071.25
2022-10-17T19:06:01.854Z,102069.28
2022-10-17T19:08:28.584Z,102078.09
2022-10-17T19:10:55.043Z,102073.31
2022-10-17T19:13:21.795Z,102072.97
2022-10-17T19:15:48.337Z,102082.16
2022-10-17T19:18:14.752Z,102084.97
2022-10-17T19:20:41.229Z,102082.56
2022-10-17T19:23:07.620Z,102080.09
2022-10-17T19:25:34.031Z,102078.56
2022-10-17T19:28:00.457Z,102090.63
2022-10-17T19:30:26.896Z,102076.63
2022-10-17T19:32:53.358Z,102078.22
2022-10-17T19:35:19.876Z,102077.84
2022-10-17T19:37:46.468Z,102083.47
2022-10-17T19:40:13.559Z,102079.50
2022-10-17T19:42:40.363Z,102085.88
2022-10-17T19:45:08.312Z,102082.31
2022-10-17T19:47:35.314Z,102079.13
2022-10-17T19:52:33.633Z,102080.75
2022-10-17T19:55:00.329Z,102084.31
2022-10-17T19:57:26.909Z,102085.56
2022-10-17T19:59:55.891Z,102090.75
2022-10-17T20:02:22.858Z,102095.16
2022-10-17T20:04:54.493Z,102094.00
2022-10-17T20:07:26.677Z,102086.41
2022-10-17T20:09:53.152Z,102086.81
2022-10-17T20:12:19.684Z,102091.63
2022-10-17T20:14:46.283Z,102097.22
2022-10-17T20:17:12.866Z,102103.25
2022-10-17T20:19:39.387Z,102104.88
2022-10-17T20:22:05.915Z,102104.13
2022-10-17T20:24:32.393Z,102115.75
2022-10-17T20:26:58.947Z,102100.56
2022-10-17T20:29:27.927Z,102106.91
2022-10-17T20:31:54.403Z,102109.41
2022-10-17T20:34:20.914Z,102111.78
2022-10-17T20:36:48.070Z,102118.19
2022-10-17T20:39:16.242Z,102106.59
2022-10-17T20:41:43.555Z,102108.59
2022-10-17T20:44:10.529Z,102111.41
2022-10-17T20:46:41.706Z,102103.84
2022-10-17T20:49:15.847Z,102103.06
2022-10-17T20:51:42.970Z,102098.63
2022-10-17T20:54:09.627Z,102107.41
2022-10-17T20:56:36.337Z,102104.63
2022-10-17T20:59:06.566Z,102104.63
2022-10-17T21:01:35.311Z,102099.09
2022-10-17T21:04:26.822Z,102101.53
2022-10-17T21:06:51.764Z,102116.72
2022-10-17T21:09:18.762Z,102119.13
2022-10-17T21:11:45.247Z,102124.78
2022-10-17T21:14:12.309Z,102125.13
2022-10-17T21:16:41.179Z,102131.16
2022-10-17T21:19:07.575Z,102126.78
2022-10-17T21:21:36.518Z,102137.22
2022-10-17T21:24:09.000Z,102135.66
2022-10-17T21:26:36.881Z,102150.47
2022-10-17T21:29:05.851Z,102153.69
2022-10-17T21:31:37.500Z,102152.09
2022-10-17T21:34:08.989Z,102154.50
2022-10-17T21:36:35.844Z,102146.16
2022-10-17T21:39:02.607Z,102145.69
2022-10-17T21:41:30.802Z,102154.47
2022-10-17T21:44:00.144Z,102152.44
2022-10-17T21:46:26.988Z,102141.66
2022-10-17T21:48:54.077Z,102144.03
2022-10-17T21:51:25.152Z,102154.44
2022-10-17T21:53:53.352Z,102169.25
2022-10-17T21:56:22.917Z,102162.88
2022-10-17T21:58:50.949Z,102169.69
2022-10-17T22:01:23.039Z,102169.72
2022-10-17T22:03:52.227Z,102172.16
2022-10-17T22:09:19.807Z,102178.69
2022-10-17T22:11:48.906Z,102172.28
2022-10-17T22:14:17.849Z,102169.84
2022-10-17T22:16:48.017Z,102167.84
2022-10-17T22:19:18.210Z,102161.06
2022-10-17T22:21:45.070Z,102162.63
2022-10-17T22:24:13.358Z,102154.66
2022-10-17T22:26:40.104Z,102152.66
2022-10-17T22:29:07.899Z,102163.88
2022-10-17T22:31:35.511Z,102165.44
2022-10-17T22:34:02.954Z,102163.88
2022-10-17T22:36:31.334Z,102166.28
2022-10-17T22:38:57.828Z,102169.88
2022-10-17T22:41:24.259Z,102171.50
2022-10-17T22:43:50.703Z,102170.34
2022-10-17T22:46:17.264Z,102175.94
2022-10-17T22:48:44.016Z,102180.34
2022-10-17T22:51:10.933Z,102178.72
2022-10-17T22:53:41.087Z,102178.72
2022-10-17T22:56:13.905Z,102180.34
2022-10-17T22:59:03.429Z,102194.31
2022-10-17T23:01:29.854Z,102188.38
2022-10-17T23:03:56.334Z,102189.19
2022-10-17T23:06:22.965Z,102179.97
2022-10-17T23:08:49.544Z,102198.75
2022-10-17T23:11:24.187Z,102198.38
2022-10-17T23:13:50.639Z,102199.97
2022-10-17T23:16:17.118Z,102195.56
2022-10-17T23:18:46.343Z,102181.59
2022-10-17T23:21:12.887Z,102174.00
2022-10-17T23:23:39.314Z,102177.16
2022-10-17T23:26:13.736Z,102171.56
2022-10-17T23:28:41.178Z,102167.59
2022-10-17T23:31:18.192Z,102173.19
2022-10-17T23:33:46.503Z,102186.38
2022-10-17T23:36:18.833Z,102181.94
2022-10-17T23:38:46.649Z,102178.75
2022-10-17T23:41:13.947Z,102187.94
2022-10-17T23:43:40.985Z,102192.38
2022-10-17T23:46:07.561Z,102190.75
2022-10-17T23:48:34.202Z,102194.75
2022-10-17T23:51:00.756Z,102195.56
2022-10-17T23:53:27.239Z,102196.34
2022-10-17T23:55:56.207Z,102194.75
2022-10-17T23:58:22.697Z,102194.34
